createdAt,value
2019-02-08T00:01:12.442Z,6.72
2019-02-08T00:04:02.292Z,6.74
2019-02-08T00:06:52.272Z,6.71
2019-02-08T00:09:42.315Z,6.73
2019-02-08T00:12:32.408Z,6.71
2019-02-08T00:15:22.706Z,6.72
2019-02-08T00:18:13.400Z,6.68
2019-02-08T00:21:03.893Z,6.65
2019-02-08T00:23:54.072Z,6.66
2019-02-08T00:26:44.171Z,6.62
2019-02-08T00:29:33.938Z,6.61
2019-02-08T00:32:24.067Z,6.63
2019-02-08T00:35:14.711Z,6.62
2019-02-08T00:38:04.814Z,6.62
2019-02-08T00:40:54.660Z,6.64
2019-02-08T00:43:44.273Z,6.60
2019-02-08T00:46:34.229Z,6.57
2019-02-08T00:49:24.429Z,6.61
2019-02-08T00:52:14.367Z,6.65
2019-02-08T00:55:04.649Z,6.60
2019-02-08T00:57:54.465Z,6.63
2019-02-08T01:00:44.674Z,6.60
2019-02-08T01:03:34.694Z,6.56
2019-02-08T01:06:24.899Z,6.59
2019-02-08T01:09:14.907Z,6.62
2019-02-08T01:12:04.960Z,6.61
2019-02-08T01:14:54.617Z,6.56
2019-02-08T01:17:44.608Z,6.60
2019-02-08T01:20:35.117Z,6.59
2019-02-08T01:23:24.844Z,6.59
2019-02-08T01:26:14.667Z,6.57
2019-02-08T01:29:04.428Z,6.53
2019-02-08T01:31:54.313Z,6.52
2019-02-08T01:34:44.539Z,6.53
2019-02-08T01:37:35.002Z,6.51
2019-02-08T01:40:34.238Z,6.50
2019-02-08T01:43:25.599Z,6.49
2019-02-08T01:46:15.239Z,6.42
2019-02-08T01:49:05.147Z,6.50
2019-02-08T01:51:55.128Z,6.52
2019-02-08T01:54:45.133Z,6.52
2019-02-08T01:57:35.328Z,6.50
2019-02-08T02:00:30.360Z,6.54
2019-02-08T02:03:21.254Z,6.51
2019-02-08T02:06:11.296Z,6.45
2019-02-08T02:09:01.562Z,6.47
2019-02-08T02:11:53.029Z,6.45
2019-02-08T02:14:43.333Z,6.46
2019-02-08T02:17:34.182Z,6.40
2019-02-08T02:20:27.328Z,6.34
2019-02-08T02:23:17.883Z,6.36
2019-02-08T02:26:07.869Z,6.33
2019-02-08T02:28:57.950Z,6.32
2019-02-08T02:31:48.175Z,6.32
2019-02-08T02:34:37.886Z,6.34
2019-02-08T02:37:28.119Z,6.30
2019-02-08T02:40:18.948Z,6.28
2019-02-08T02:43:09.821Z,6.25
2019-02-08T02:45:59.881Z,6.21
2019-02-08T02:48:49.679Z,6.12
2019-02-08T02:51:40.019Z,6.09
2019-02-08T02:54:29.581Z,6.13
2019-02-08T02:57:19.377Z,6.11
2019-02-08T03:00:19.131Z,6.11
2019-02-08T03:03:09.678Z,6.11
2019-02-08T03:05:59.541Z,6.13
2019-02-08T03:08:49.715Z,6.16
2019-02-08T03:11:39.526Z,6.17
2019-02-08T03:14:29.359Z,6.20
2019-02-08T03:17:19.143Z,6.22
2019-02-08T03:20:14.375Z,6.24
2019-02-08T03:23:04.393Z,6.28
2019-02-08T03:25:54.733Z,6.25
2019-02-08T03:28:44.319Z,6.25
2019-02-08T03:31:34.099Z,6.22
2019-02-08T03:34:24.148Z,6.22
2019-02-08T03:37:13.970Z,6.24
2019-02-08T03:40:05.903Z,6.22
2019-02-08T03:42:57.708Z,6.19
2019-02-08T03:45:49.465Z,6.14
2019-02-08T03:48:39.170Z,6.04
2019-02-08T03:51:28.861Z,6.02
2019-02-08T03:54:21.311Z,6.00
2019-02-08T03:57:11.223Z,6.02
2019-02-08T04:00:01.390Z,6.07
2019-02-08T04:02:51.670Z,6.08
2019-02-08T04:05:41.827Z,6.12
2019-02-08T04:08:31.728Z,6.12
2019-02-08T04:11:21.554Z,6.16
2019-02-08T04:14:11.696Z,6.18
2019-02-08T04:17:01.429Z,6.13
2019-02-08T04:19:51.656Z,6.18
2019-02-08T04:22:41.638Z,4.35
2019-02-08T04:25:31.185Z,6.17
2019-02-08T04:28:21.350Z,6.21
2019-02-08T04:31:11.093Z,6.21
2019-02-08T04:34:00.884Z,6.23
2019-02-08T04:36:50.688Z,6.21
2019-02-08T04:39:40.396Z,6.27
2019-02-08T04:42:30.264Z,6.26
2019-02-08T04:45:20.852Z,6.24
2019-02-08T04:48:10.941Z,6.25
2019-02-08T04:51:01.270Z,6.28
2019-02-08T04:53:50.845Z,6.23
2019-02-08T04:56:40.875Z,6.24
2019-02-08T04:59:31.052Z,6.27
2019-02-08T05:02:21.164Z,6.29
2019-02-08T05:05:11.238Z,6.34
2019-02-08T05:08:01.234Z,6.36
2019-02-08T05:10:51.558Z,6.42
2019-02-08T05:13:41.580Z,6.44
2019-02-08T05:16:31.327Z,6.46
2019-02-08T05:19:21.063Z,6.51
2019-02-08T05:22:11.081Z,6.50
2019-02-08T05:25:00.955Z,6.50
2019-02-08T05:27:52.598Z,6.47
2019-02-08T05:30:42.946Z,6.46
2019-02-08T05:33:32.950Z,6.39
2019-02-08T05:36:23.074Z,6.34
2019-02-08T05:39:13.206Z,6.35
2019-02-08T05:42:03.484Z,6.32
2019-02-08T05:44:53.145Z,6.32
2019-02-08T05:47:42.701Z,6.31
2019-02-08T05:50:32.776Z,6.27
2019-02-08T05:53:22.796Z,6.26
2019-02-08T05:56:13.036Z,6.22
2019-02-08T05:59:02.941Z,6.23
2019-02-08T06:01:53.305Z,6.23
2019-02-08T06:04:43.601Z,6.23
2019-02-08T06:07:33.371Z,6.23
2019-02-08T06:10:23.361Z,6.25
2019-02-08T06:13:13.349Z,6.29
2019-02-08T06:16:03.558Z,6.28
2019-02-08T06:18:53.421Z,6.32
2019-02-08T06:21:43.462Z,6.31
2019-02-08T06:24:33.576Z,6.29
2019-02-08T06:27:23.506Z,6.29
2019-02-08T06:30:20.158Z,6.34
2019-02-08T06:33:10.201Z,6.29
2019-02-08T06:36:00.512Z,6.30
2019-02-08T06:38:50.695Z,6.31
2019-02-08T06:41:40.762Z,6.28
2019-02-08T06:44:30.881Z,6.30
2019-02-08T06:47:20.373Z,6.34
2019-02-08T06:50:12.556Z,6.31
2019-02-08T06:53:02.566Z,6.31
2019-02-08T06:55:54.016Z,6.30
2019-02-08T06:58:50.227Z,6.27
2019-02-08T07:02:17.198Z,6.22
2019-02-08T07:05:18.835Z,6.18
2019-02-08T07:08:16.784Z,6.16
2019-02-08T07:11:24.354Z,6.21
2019-02-08T07:14:26.365Z,6.31
2019-02-08T07:17:42.040Z,6.30
2019-02-08T07:20:44.641Z,6.46
2019-02-08T07:23:44.353Z,6.61
2019-02-08T07:26:52.441Z,6.82
2019-02-08T07:30:04.327Z,7.12
2019-02-08T07:33:15.943Z,7.51
2019-02-08T07:36:28.127Z,7.80
2019-02-08T07:39:27.049Z,8.02
2019-02-08T07:42:25.098Z,8.10
2019-02-08T07:45:24.538Z,8.17
2019-02-08T07:48:34.149Z,8.33
2019-02-08T07:51:48.746Z,8.51
2019-02-08T07:54:55.606Z,8.83
2019-02-08T07:57:53.563Z,8.92
2019-02-08T08:00:54.490Z,8.92
2019-02-08T08:04:02.112Z,9.04
2019-02-08T08:07:17.345Z,8.99
2019-02-08T08:10:20.503Z,8.98
2019-02-08T08:13:24.278Z,8.91
2019-02-08T08:16:36.703Z,8.78
2019-02-08T08:19:58.044Z,8.88
2019-02-08T08:23:05.722Z,9.27
2019-02-08T08:26:13.247Z,10.16
2019-02-08T08:29:24.307Z,10.96
2019-02-08T08:32:29.118Z,11.39
2019-02-08T08:36:01.883Z,11.31
2019-02-08T08:39:42.042Z,11.08
2019-02-08T08:43:11.707Z,10.98
2019-02-08T08:47:11.892Z,10.71
2019-02-08T08:51:04.749Z,10.79
2019-02-08T08:54:37.364Z,10.87
2019-02-08T08:58:13.063Z,10.80
2019-02-08T09:02:05.730Z,10.69
2019-02-08T09:05:41.216Z,10.73
2019-02-08T09:09:09.600Z,10.86
2019-02-08T09:12:41.468Z,10.71
2019-02-08T09:16:24.506Z,10.68
2019-02-08T09:19:45.194Z,11.00
2019-02-08T09:23:27.663Z,11.73
2019-02-08T09:27:36.262Z,12.81
2019-02-08T09:31:30.434Z,13.53
2019-02-08T09:35:10.702Z,13.79
2019-02-08T09:38:46.531Z,14.03
2019-02-08T09:42:46.264Z,14.39
2019-02-08T09:46:23.717Z,14.32
2019-02-08T09:50:26.596Z,14.03
2019-02-08T09:54:18.352Z,14.23
2019-02-08T09:58:09.662Z,14.17
2019-02-08T10:02:14.626Z,14.73
2019-02-08T10:06:05.378Z,15.31
2019-02-08T10:09:51.195Z,15.59
2019-02-08T10:13:31.288Z,15.56
2019-02-08T10:17:10.553Z,15.72
2019-02-08T10:20:54.496Z,15.74
2019-02-08T10:24:41.281Z,16.17
2019-02-08T10:28:42.608Z,16.88
2019-02-08T10:32:24.137Z,16.88
2019-02-08T10:35:52.583Z,16.78
2019-02-08T10:39:39.087Z,16.87
2019-02-08T10:43:25.298Z,17.30
2019-02-08T10:46:53.679Z,17.66
2019-02-08T10:50:55.518Z,17.60
2019-02-08T10:54:46.886Z,17.31
2019-02-08T10:58:37.498Z,17.10
2019-02-08T11:02:08.722Z,16.50
2019-02-08T11:06:20.293Z,16.85
2019-02-08T11:09:57.315Z,17.86
2019-02-08T11:13:36.437Z,19.12
2019-02-08T11:17:14.237Z,20.01
2019-02-08T11:20:06.837Z,21.08
2019-02-08T11:22:56.633Z,21.70
2019-02-08T11:25:46.591Z,22.38
2019-02-08T11:28:35.702Z,22.62
2019-02-08T11:31:25.574Z,23.14
2019-02-08T11:34:15.849Z,23.38
2019-02-08T11:37:06.730Z,23.47
2019-02-08T11:39:56.489Z,23.50
2019-02-08T11:42:46.392Z,23.61
2019-02-08T11:45:36.531Z,23.51
2019-02-08T11:48:26.810Z,23.49
2019-02-08T11:51:16.747Z,23.51
2019-02-08T11:54:07.293Z,23.25
2019-02-08T11:56:58.360Z,22.91
2019-02-08T11:59:48.117Z,22.44
2019-02-08T12:02:40.562Z,22.30
2019-02-08T12:05:29.593Z,21.91
2019-02-08T12:08:19.645Z,21.39
2019-02-08T12:11:09.867Z,21.32
2019-02-08T12:13:59.842Z,21.20
2019-02-08T12:16:49.925Z,21.31
2019-02-08T12:19:39.610Z,21.20
2019-02-08T12:22:29.670Z,21.24
2019-02-08T12:25:19.276Z,21.15
2019-02-08T12:28:09.423Z,20.83
2019-02-08T12:30:59.437Z,21.09
2019-02-08T12:33:49.177Z,21.10
2019-02-08T12:36:39.860Z,20.86
2019-02-08T12:39:30.109Z,20.35
2019-02-08T12:42:19.618Z,19.77
2019-02-08T12:45:10.137Z,18.96
2019-02-08T12:47:59.883Z,18.27
2019-02-08T12:50:49.807Z,17.65
2019-02-08T12:53:39.530Z,17.24
2019-02-08T12:56:29.302Z,16.83
2019-02-08T12:59:19.152Z,16.30
2019-02-08T13:02:09.364Z,15.92
2019-02-08T13:04:59.060Z,15.56
2019-02-08T13:07:49.014Z,15.21
2019-02-08T13:10:39.196Z,15.01
2019-02-08T13:13:28.987Z,14.84
2019-02-08T13:16:18.955Z,14.65
2019-02-08T13:19:09.695Z,14.47
2019-02-08T13:21:59.804Z,14.41
2019-02-08T13:24:49.744Z,14.37
2019-02-08T13:27:39.719Z,14.19
2019-02-08T13:30:30.134Z,14.13
2019-02-08T13:33:20.237Z,13.94
2019-02-08T13:36:16.022Z,13.93
2019-02-08T13:39:09.327Z,13.81
2019-02-08T13:42:01.237Z,13.79
2019-02-08T13:44:51.348Z,13.73
2019-02-08T13:47:41.276Z,13.71
2019-02-08T13:50:31.236Z,13.72
2019-02-08T13:53:21.060Z,13.73
2019-02-08T13:56:11.499Z,13.69
2019-02-08T13:59:01.104Z,13.68
2019-02-08T14:01:51.321Z,13.74
2019-02-08T14:04:41.441Z,13.75
2019-02-08T14:07:31.510Z,13.70
2019-02-08T14:10:21.771Z,13.70
2019-02-08T14:13:11.302Z,13.65
2019-02-08T14:16:01.024Z,13.62
2019-02-08T14:18:50.865Z,13.64
2019-02-08T14:21:40.571Z,13.56
2019-02-08T14:24:30.677Z,13.53
2019-02-08T14:27:20.867Z,13.44
2019-02-08T14:30:30.802Z,13.26
2019-02-08T14:33:21.133Z,13.15
2019-02-08T14:36:11.055Z,13.06
2019-02-08T14:39:01.258Z,13.01
2019-02-08T14:41:52.733Z,12.94
2019-02-08T14:44:42.830Z,12.81
2019-02-08T14:47:32.882Z,12.76
2019-02-08T14:50:24.829Z,12.72
2019-02-08T14:53:14.915Z,12.68
2019-02-08T14:56:05.492Z,12.60
2019-02-08T14:58:55.306Z,12.55
2019-02-08T15:01:45.481Z,12.48
2019-02-08T15:04:35.633Z,12.45
2019-02-08T15:07:25.518Z,12.33
2019-02-08T15:10:28.688Z,12.34
2019-02-08T15:13:18.470Z,12.20
2019-02-08T15:16:08.322Z,12.19
2019-02-08T15:18:57.896Z,12.14
2019-02-08T15:21:47.928Z,12.10
2019-02-08T15:24:38.570Z,12.12
2019-02-08T15:27:28.871Z,12.00
2019-02-08T15:30:26.015Z,11.98
2019-02-08T15:33:15.819Z,11.85
2019-02-08T15:36:05.878Z,11.85
2019-02-08T15:38:56.138Z,11.76
2019-02-08T15:41:46.509Z,11.73
2019-02-08T15:44:36.245Z,11.64
2019-02-08T15:47:25.827Z,11.57
2019-02-08T15:50:15.881Z,11.57
2019-02-08T15:53:05.375Z,11.54
2019-02-08T15:56:06.735Z,11.52
2019-02-08T15:58:56.523Z,11.48
2019-02-08T16:01:45.985Z,11.38
2019-02-08T16:04:35.436Z,11.37
2019-02-08T16:07:25.318Z,11.28
2019-02-08T16:10:16.291Z,11.26
2019-02-08T16:13:06.611Z,11.23
2019-02-08T16:15:56.842Z,11.20
2019-02-08T16:18:47.445Z,11.15
2019-02-08T16:21:37.691Z,11.04
2019-02-08T16:24:27.895Z,11.00
2019-02-08T16:27:17.641Z,10.90
2019-02-08T16:30:15.066Z,10.91
2019-02-08T16:33:06.327Z,10.86
2019-02-08T16:35:55.769Z,10.82
2019-02-08T16:38:46.240Z,10.77
2019-02-08T16:41:35.725Z,10.76
2019-02-08T16:44:25.908Z,10.78
2019-02-08T16:47:16.540Z,10.75
2019-02-08T16:50:09.757Z,10.72
2019-02-08T16:52:59.569Z,10.68
2019-02-08T16:55:50.004Z,10.67
2019-02-08T16:58:39.972Z,10.61
2019-02-08T17:01:29.803Z,10.60
2019-02-08T17:04:19.346Z,10.60
2019-02-08T17:07:09.005Z,10.59
2019-02-08T17:09:58.691Z,10.61
2019-02-08T17:12:49.069Z,10.51
2019-02-08T17:15:39.475Z,10.51
2019-02-08T17:18:29.198Z,10.54
2019-02-08T17:21:18.705Z,10.57
2019-02-08T17:24:09.128Z,10.50
2019-02-08T17:26:59.873Z,10.47
2019-02-08T17:29:50.030Z,10.49
2019-02-08T17:32:39.817Z,10.44
2019-02-08T17:35:30.358Z,10.44
2019-02-08T17:38:20.004Z,10.38
2019-02-08T17:41:10.117Z,10.36
2019-02-08T17:44:00.212Z,10.35
2019-02-08T17:46:50.307Z,10.29
2019-02-08T17:49:39.959Z,10.27
2019-02-08T17:52:30.155Z,10.19
2019-02-08T17:55:21.958Z,10.21
2019-02-08T17:58:12.131Z,10.16
2019-02-08T18:01:01.707Z,10.07
2019-02-08T18:03:51.715Z,10.04
2019-02-08T18:06:41.721Z,9.99
2019-02-08T18:09:31.582Z,9.93
2019-02-08T18:12:21.323Z,9.87
2019-02-08T18:15:14.600Z,9.86
2019-02-08T18:18:05.014Z,9.83
2019-02-08T18:21:02.473Z,9.77
2019-02-08T18:23:52.443Z,9.74
2019-02-08T18:26:42.517Z,9.73
2019-02-08T18:29:32.828Z,9.66
2019-02-08T18:32:22.699Z,9.60
2019-02-08T18:35:13.367Z,9.57
2019-02-08T18:38:04.995Z,9.52
2019-02-08T18:40:55.306Z,9.58
2019-02-08T18:43:45.114Z,9.49
2019-02-08T18:46:35.465Z,9.48
2019-02-08T18:49:25.408Z,9.40
2019-02-08T18:52:15.155Z,9.45
2019-02-08T18:55:05.419Z,9.46
2019-02-08T18:57:56.457Z,9.43
2019-02-08T19:00:49.095Z,9.47
2019-02-08T19:03:38.846Z,9.44
2019-02-08T19:06:28.713Z,9.46
2019-02-08T19:09:19.037Z,9.39
2019-02-08T19:12:08.578Z,9.40
2019-02-08T19:14:58.299Z,9.43
2019-02-08T19:17:48.408Z,9.40
2019-02-08T19:20:38.382Z,9.35
2019-02-08T19:23:29.945Z,9.27
2019-02-08T19:26:19.519Z,9.20
2019-02-08T19:29:09.506Z,9.23
2019-02-08T19:31:59.842Z,9.31
2019-02-08T19:34:50.623Z,9.25
2019-02-08T19:37:40.537Z,9.27
2019-02-08T19:40:33.229Z,9.29
2019-02-08T19:43:23.145Z,9.31
2019-02-08T19:46:13.038Z,9.31
2019-02-08T19:49:02.933Z,9.38
2019-02-08T19:51:52.469Z,9.40
2019-02-08T19:54:43.550Z,9.39
2019-02-08T19:57:33.200Z,9.29
2019-02-08T20:00:25.025Z,9.40
2019-02-08T20:03:14.485Z,9.35
2019-02-08T20:06:04.362Z,9.31
2019-02-08T20:08:54.712Z,9.44
2019-02-08T20:11:45.458Z,9.45
2019-02-08T20:14:35.180Z,9.32
2019-02-08T20:17:24.626Z,9.39
2019-02-08T20:20:15.144Z,9.32
2019-02-08T20:23:06.120Z,9.37
2019-02-08T20:25:55.238Z,9.31
2019-02-08T20:28:45.282Z,9.29
2019-02-08T20:31:36.385Z,9.35
2019-02-08T20:34:26.137Z,9.37
2019-02-08T20:37:15.695Z,9.39
2019-02-08T20:40:08.907Z,9.38
2019-02-08T20:42:58.951Z,9.45
2019-02-08T20:45:48.386Z,9.42
2019-02-08T20:48:38.896Z,9.44
2019-02-08T20:51:29.115Z,9.40
2019-02-08T20:54:18.585Z,9.43
2019-02-08T20:57:08.965Z,9.39
2019-02-08T20:59:58.733Z,9.35
2019-02-08T21:02:49.161Z,9.38
2019-02-08T21:05:38.661Z,9.38
2019-02-08T21:08:28.922Z,9.38
2019-02-08T21:11:19.196Z,9.31
2019-02-08T21:14:09.133Z,9.31
2019-02-08T21:16:59.056Z,9.36
2019-02-08T21:19:49.212Z,9.32
2019-02-08T21:22:38.809Z,9.29
2019-02-08T21:25:29.720Z,9.25
2019-02-08T21:28:19.267Z,9.22
2019-02-08T21:31:09.343Z,9.29
2019-02-08T21:33:58.753Z,9.30
2019-02-08T21:36:48.393Z,9.33
2019-02-08T21:39:38.345Z,9.34
2019-02-08T21:42:28.482Z,9.33
2019-02-08T21:45:21.090Z,9.24
2019-02-08T21:48:12.090Z,9.19
2019-02-08T21:51:02.387Z,9.18
2019-02-08T21:53:52.245Z,9.17
2019-02-08T21:56:42.145Z,9.10
2019-02-08T21:59:31.910Z,9.11
2019-02-08T22:02:21.314Z,9.10
2019-02-08T22:05:11.463Z,9.17
2019-02-08T22:08:01.565Z,9.20
2019-02-08T22:10:51.502Z,9.16
2019-02-08T22:13:41.716Z,9.23
2019-02-08T22:16:32.067Z,9.23
2019-02-08T22:19:21.746Z,9.32
2019-02-08T22:22:11.227Z,9.28
2019-02-08T22:25:01.314Z,9.30
2019-02-08T22:27:51.523Z,9.27
2019-02-08T22:30:41.986Z,9.28
2019-02-08T22:33:31.885Z,9.23
2019-02-08T22:36:21.695Z,9.20
2019-02-08T22:39:12.164Z,9.13
2019-02-08T22:42:01.980Z,9.11
2019-02-08T22:44:51.486Z,9.14
2019-02-08T22:47:41.774Z,9.17
2019-02-08T22:50:32.054Z,9.16
2019-02-08T22:53:21.996Z,9.23
2019-02-08T22:56:11.717Z,9.16
2019-02-08T22:59:01.648Z,9.20
2019-02-08T23:01:53.179Z,9.23
2019-02-08T23:04:43.190Z,9.21
2019-02-08T23:07:33.310Z,9.28
2019-02-08T23:10:23.321Z,9.29
2019-02-08T23:13:13.198Z,9.22
2019-02-08T23:16:03.417Z,9.27
2019-02-08T23:18:53.232Z,9.24
2019-02-08T23:21:43.616Z,9.10
2019-02-08T23:24:33.109Z,9.22
2019-02-08T23:27:22.736Z,9.26
2019-02-08T23:30:13.970Z,9.26
2019-02-08T23:33:05.189Z,9.24
2019-02-08T23:35:54.868Z,9.30
2019-02-08T23:38:44.663Z,9.30
2019-02-08T23:41:36.151Z,9.26
2019-02-08T23:44:25.891Z,9.21
2019-02-08T23:47:15.787Z,9.23
2019-02-08T23:50:07.159Z,9.19
2019-02-08T23:52:56.774Z,9.19
2019-02-08T23:55:47.229Z,9.24
2019-02-08T23:58:37.418Z,9.22
